createdAt,value
2022-09-04T00:01:31.686Z,13.42
2022-09-04T00:04:11.993Z,13.41
2022-09-04T00:06:42.587Z,13.38
2022-09-04T00:09:19.730Z,13.34
2022-09-04T00:11:46.073Z,13.25
2022-09-04T00:14:21.013Z,13.22
2022-09-04T00:17:01.966Z,13.18
2022-09-04T00:19:28.356Z,13.15
2022-09-04T00:21:57.548Z,13.14
2022-09-04T00:24:38.245Z,13.12
2022-09-04T00:27:16.626Z,13.09
2022-09-04T00:29:42.978Z,13.09
2022-09-04T00:32:09.378Z,13.10
2022-09-04T00:34:45.959Z,13.10
2022-09-04T00:37:14.609Z,13.11
2022-09-04T00:39:46.015Z,13.07
2022-09-04T00:42:32.027Z,13.03
2022-09-04T00:45:16.700Z,12.98
2022-09-04T00:48:01.533Z,12.91
2022-09-04T00:50:46.550Z,12.88
2022-09-04T00:53:21.248Z,12.85
2022-09-04T00:56:02.804Z,12.85
2022-09-04T00:58:37.395Z,12.80
2022-09-04T01:01:04.517Z,12.76
2022-09-04T01:03:40.256Z,12.73
2022-09-04T01:06:16.915Z,12.72
2022-09-04T01:08:56.297Z,12.73
2022-09-04T01:11:32.151Z,12.77
2022-09-04T01:14:13.185Z,12.80
2022-09-04T01:16:48.078Z,12.78
2022-09-04T01:19:33.001Z,12.71
2022-09-04T01:22:08.364Z,12.65
2022-09-04T01:24:46.915Z,12.61
2022-09-04T01:27:21.465Z,12.58
2022-09-04T01:30:08.085Z,12.59
2022-09-04T01:32:43.687Z,12.57
2022-09-04T01:35:10.025Z,12.54
2022-09-04T01:37:59.733Z,12.50
2022-09-04T01:40:44.362Z,12.52
2022-09-04T01:43:17.508Z,12.57
2022-09-04T01:45:43.849Z,12.58
2022-09-04T01:48:12.810Z,12.60
2022-09-04T01:50:42.866Z,12.57
2022-09-04T01:53:12.765Z,12.61
2022-09-04T01:55:44.877Z,12.63
2022-09-04T01:58:49.626Z,12.68
2022-09-04T02:01:21.884Z,12.73
2022-09-04T02:03:54.132Z,12.78
2022-09-04T02:06:35.468Z,12.78
2022-09-04T02:09:01.818Z,12.78
2022-09-04T02:11:29.753Z,12.78
2022-09-04T02:14:04.263Z,12.78
2022-09-04T02:16:42.655Z,12.79
2022-09-04T02:19:27.626Z,12.78
2022-09-04T02:21:56.612Z,12.76
2022-09-04T02:24:34.789Z,12.74
2022-09-04T02:27:16.300Z,12.73
2022-09-04T02:29:56.468Z,12.74
2022-09-04T02:32:27.164Z,12.74
2022-09-04T02:35:02.312Z,12.71
2022-09-04T02:37:33.745Z,12.70
2022-09-04T02:40:18.907Z,12.69
2022-09-04T02:43:00.584Z,12.67
2022-09-04T02:45:36.813Z,12.68
2022-09-04T02:48:15.609Z,12.66
2022-09-04T02:50:41.908Z,12.70
2022-09-04T02:53:27.054Z,12.71
2022-09-04T02:55:57.655Z,12.74
2022-09-04T02:58:36.257Z,12.80
2022-09-04T03:01:07.486Z,12.82
2022-09-04T03:03:49.118Z,12.82
2022-09-04T03:06:23.167Z,12.83
2022-09-04T03:08:55.368Z,12.82
2022-09-04T03:11:47.986Z,12.80
2022-09-04T03:14:21.244Z,12.79
2022-09-04T03:16:52.080Z,12.77
2022-09-04T03:19:31.370Z,12.77
2022-09-04T03:22:20.666Z,12.76
2022-09-04T03:24:50.015Z,12.73
2022-09-04T03:27:16.808Z,12.69
2022-09-04T03:29:43.069Z,12.65
2022-09-04T03:32:29.651Z,12.62
2022-09-04T03:35:00.454Z,12.56
2022-09-04T03:37:38.772Z,12.52
2022-09-04T03:40:14.241Z,12.50
2022-09-04T03:42:50.422Z,12.49
2022-09-04T03:45:32.183Z,12.47
2022-09-04T03:48:07.604Z,12.45
2022-09-04T03:50:39.408Z,12.43
2022-09-04T03:53:34.900Z,12.43
2022-09-04T03:56:20.053Z,12.42
2022-09-04T03:58:49.378Z,12.42
2022-09-04T04:01:26.642Z,12.41
2022-09-04T04:04:03.148Z,12.40
2022-09-04T04:06:41.487Z,12.38
2022-09-04T04:09:15.492Z,12.36
2022-09-04T04:12:00.472Z,12.33
2022-09-04T04:14:37.563Z,12.30
2022-09-04T04:17:19.901Z,12.30
2022-09-04T04:20:10.938Z,12.30
2022-09-04T04:22:51.309Z,12.30
2022-09-04T04:25:17.615Z,12.29
2022-09-04T04:28:00.156Z,12.28
2022-09-04T04:30:35.067Z,12.28
2022-09-04T04:33:09.008Z,12.30
2022-09-04T04:35:43.789Z,12.33
2022-09-04T04:38:28.665Z,12.34
2022-09-04T04:40:58.112Z,12.33
2022-09-04T04:43:41.517Z,12.32
2022-09-04T04:46:16.767Z,12.31
2022-09-04T04:48:45.954Z,12.29
2022-09-04T04:51:15.325Z,12.26
2022-09-04T04:53:57.099Z,12.23
2022-09-04T04:56:26.288Z,12.19
2022-09-04T04:59:08.090Z,12.19
2022-09-04T05:01:53.040Z,12.18
2022-09-04T05:04:29.963Z,12.19
2022-09-04T05:07:21.092Z,12.20
2022-09-04T05:09:50.491Z,12.21
2022-09-04T05:12:25.142Z,12.21
2022-09-04T05:14:54.437Z,12.19
2022-09-04T05:17:26.312Z,12.19
2022-09-04T05:19:55.711Z,12.14
2022-09-04T05:22:36.481Z,12.12
2022-09-04T05:25:09.868Z,12.09
2022-09-04T05:27:42.982Z,12.08
2022-09-04T05:30:18.376Z,12.08
2022-09-04T05:33:11.114Z,12.11
2022-09-04T05:35:43.581Z,12.11
2022-09-04T05:38:26.238Z,12.13
2022-09-04T05:41:00.172Z,12.14
2022-09-04T05:43:50.018Z,12.14
2022-09-04T05:46:19.215Z,12.20
2022-09-04T05:49:03.299Z,12.30
2022-09-04T05:51:48.342Z,12.41
2022-09-04T05:54:20.834Z,12.56
2022-09-04T05:57:07.754Z,12.70
2022-09-04T05:59:34.054Z,12.78
2022-09-04T06:02:19.082Z,12.90
2022-09-04T06:04:45.538Z,13.03
2022-09-04T06:07:17.634Z,13.18
2022-09-04T06:09:43.944Z,13.30
2022-09-04T06:12:19.614Z,13.48
2022-09-04T06:15:04.721Z,13.68
2022-09-04T06:17:37.219Z,13.86
2022-09-04T06:20:04.257Z,14.08
2022-09-04T06:22:37.335Z,14.24
2022-09-04T06:25:18.925Z,14.40
2022-09-04T06:28:08.183Z,14.55
2022-09-04T06:30:54.782Z,14.71
2022-09-04T06:33:41.348Z,14.89
2022-09-04T06:36:11.960Z,15.08
2022-09-04T06:38:42.149Z,15.30
2022-09-04T06:41:08.633Z,15.48
2022-09-04T06:43:37.974Z,15.66
2022-09-04T06:46:13.587Z,15.79
2022-09-04T06:48:42.713Z,15.80
2022-09-04T06:51:29.109Z,15.93
2022-09-04T06:54:14.075Z,16.03
2022-09-04T06:56:55.782Z,16.10
2022-09-04T06:59:41.086Z,16.24
2022-09-04T07:02:13.611Z,16.23
2022-09-04T07:04:43.303Z,16.20
2022-09-04T07:07:18.680Z,16.19
2022-09-04T07:09:48.220Z,16.11
2022-09-04T07:12:33.810Z,16.08
2022-09-04T07:15:12.050Z,16.10
2022-09-04T07:18:01.183Z,16.18
2022-09-04T07:20:46.585Z,16.28
2022-09-04T07:23:41.728Z,16.37
2022-09-04T07:26:28.799Z,16.66
2022-09-04T07:29:15.557Z,17.05
2022-09-04T07:31:44.065Z,17.19
2022-09-04T07:34:16.193Z,17.33
2022-09-04T07:37:05.433Z,17.31
2022-09-04T07:39:38.109Z,17.35
2022-09-04T07:42:07.606Z,17.40
2022-09-04T07:44:42.271Z,17.38
2022-09-04T07:47:12.208Z,17.47
2022-09-04T07:49:42.448Z,17.53
2022-09-04T07:52:27.598Z,17.69
2022-09-04T07:54:57.029Z,17.80
2022-09-04T07:57:32.281Z,17.87
2022-09-04T08:00:13.487Z,18.02
2022-09-04T08:03:00.800Z,17.89
2022-09-04T08:05:31.854Z,18.08
2022-09-04T08:08:04.596Z,18.03
2022-09-04T08:10:38.860Z,18.12
2022-09-04T08:13:13.991Z,18.32
2022-09-04T08:15:47.337Z,18.55
2022-09-04T08:18:13.740Z,18.75
2022-09-04T08:20:46.044Z,18.63
2022-09-04T08:23:12.363Z,18.86
2022-09-04T08:25:44.971Z,18.87
2022-09-04T08:28:33.335Z,18.88
2022-09-04T08:31:09.920Z,18.81
2022-09-04T08:33:44.748Z,18.66
2022-09-04T08:36:11.073Z,18.72
2022-09-04T08:38:47.302Z,18.79
2022-09-04T08:41:16.522Z,18.86
2022-09-04T08:43:55.038Z,18.99
2022-09-04T08:46:36.665Z,19.07
2022-09-04T08:49:15.159Z,19.09
2022-09-04T08:51:57.079Z,19.04
2022-09-04T08:54:39.992Z,19.12
2022-09-04T08:57:23.915Z,19.31
2022-09-04T09:00:01.909Z,19.39
2022-09-04T09:02:47.031Z,19.40
2022-09-04T09:05:16.274Z,19.44
2022-09-04T09:07:51.721Z,19.43
2022-09-04T09:10:18.193Z,19.41
2022-09-04T09:12:59.668Z,19.51
2022-09-04T09:15:33.278Z,19.51
2022-09-04T09:18:23.192Z,19.56
2022-09-04T09:21:08.209Z,19.66
2022-09-04T09:23:53.245Z,19.87
2022-09-04T09:26:23.828Z,20.07
2022-09-04T09:29:16.216Z,20.11
2022-09-04T09:32:03.753Z,20.19
2022-09-04T09:34:48.947Z,20.15
2022-09-04T09:37:25.576Z,20.37
2022-09-04T09:39:52.034Z,20.45
2022-09-04T09:42:21.372Z,20.61
2022-09-04T09:44:47.949Z,20.65
2022-09-04T09:47:23.675Z,20.65
2022-09-04T09:49:53.597Z,20.64
2022-09-04T09:52:19.972Z,20.79
2022-09-04T09:55:05.061Z,20.73
2022-09-04T09:57:58.251Z,20.76
2022-09-04T10:00:27.489Z,20.77
2022-09-04T10:03:14.015Z,20.78
2022-09-04T10:06:15.884Z,20.92
2022-09-04T10:09:01.147Z,20.94
2022-09-04T10:11:27.524Z,21.11
2022-09-04T10:14:06.577Z,21.01
2022-09-04T10:16:32.908Z,21.17
2022-09-04T10:19:04.942Z,21.18
2022-09-04T10:21:46.311Z,21.17
2022-09-04T10:24:31.842Z,21.44
2022-09-04T10:27:04.322Z,21.33
2022-09-04T10:29:44.513Z,21.33
2022-09-04T10:32:38.192Z,21.36
2022-09-04T10:39:01.450Z,21.59
2022-09-04T10:41:56.747Z,21.73
2022-09-04T10:44:40.302Z,21.80
2022-09-04T10:47:18.782Z,21.91
2022-09-04T10:50:03.574Z,22.16
2022-09-04T10:52:41.908Z,22.28
2022-09-04T10:55:16.186Z,22.29
2022-09-04T10:57:48.902Z,22.48
2022-09-04T11:00:19.563Z,22.68
2022-09-04T11:03:04.112Z,23.03
2022-09-04T11:05:40.356Z,24.17
2022-09-04T11:08:25.529Z,25.07
2022-09-04T11:11:05.652Z,25.81
2022-09-04T11:13:51.656Z,26.36
2022-09-04T11:16:30.419Z,26.87
2022-09-04T11:19:10.352Z,27.71
2022-09-04T11:21:51.448Z,27.92
2022-09-04T11:24:37.257Z,27.85
2022-09-04T11:27:08.372Z,27.34
2022-09-04T11:29:50.121Z,27.87
2022-09-04T11:32:26.996Z,27.86
2022-09-04T11:35:19.355Z,28.09
2022-09-04T11:37:48.736Z,27.79
2022-09-04T11:40:21.037Z,27.98
2022-09-04T11:42:50.473Z,27.88
2022-09-04T11:45:34.598Z,28.07
2022-09-04T11:48:18.001Z,28.22
2022-09-04T11:51:01.924Z,28.14
2022-09-04T11:53:48.504Z,28.22
2022-09-04T11:56:14.811Z,27.85
2022-09-04T11:58:50.267Z,27.82
2022-09-04T12:01:43.466Z,28.20
2022-09-04T12:04:14.630Z,28.57
2022-09-04T12:06:44.211Z,28.59
2022-09-04T12:09:33.701Z,28.57
2022-09-04T12:12:02.779Z,28.28
2022-09-04T12:14:47.893Z,27.94
2022-09-04T12:17:15.584Z,28.37
2022-09-04T12:20:01.448Z,28.33
2022-09-04T12:22:31.171Z,28.31
2022-09-04T12:25:00.243Z,28.33
2022-09-04T12:27:26.519Z,28.28
2022-09-04T12:30:04.147Z,28.01
2022-09-04T12:32:30.488Z,28.19
2022-09-04T12:35:12.028Z,27.98
2022-09-04T12:37:57.331Z,27.72
2022-09-04T12:40:31.004Z,28.27
2022-09-04T12:42:57.343Z,27.83
2022-09-04T12:45:36.422Z,27.89
2022-09-04T12:48:19.119Z,28.40
2022-09-04T12:50:57.620Z,29.04
2022-09-04T12:53:48.190Z,28.60
2022-09-04T12:56:27.801Z,28.23
2022-09-04T12:58:56.916Z,28.04
2022-09-04T13:01:45.288Z,28.20
2022-09-04T13:04:21.269Z,28.05
2022-09-04T13:06:53.340Z,28.11
2022-09-04T13:09:19.929Z,28.67
2022-09-04T13:11:57.051Z,28.86
2022-09-04T13:14:32.575Z,27.92
2022-09-04T13:17:13.989Z,27.58
2022-09-04T13:19:52.409Z,27.18
2022-09-04T13:22:24.871Z,27.48
2022-09-04T13:25:10.039Z,27.66
2022-09-04T13:27:49.153Z,26.90
2022-09-04T13:30:24.417Z,26.94
2022-09-04T13:33:03.333Z,26.65
2022-09-04T13:35:42.544Z,26.58
2022-09-04T13:38:15.361Z,26.70
2022-09-04T13:41:02.060Z,26.46
2022-09-04T13:43:42.100Z,26.45
2022-09-04T13:46:11.750Z,26.41
2022-09-04T13:48:52.148Z,26.70
2022-09-04T13:51:29.652Z,26.93
2022-09-04T13:53:55.942Z,26.69
2022-09-04T13:56:30.069Z,26.41
2022-09-04T13:59:00.248Z,26.29
2022-09-04T14:01:27.860Z,26.56
2022-09-04T14:04:02.186Z,26.70
2022-09-04T14:06:30.636Z,26.25
2022-09-04T14:09:05.471Z,26.64
2022-09-04T14:11:32.265Z,26.47
2022-09-04T14:14:11.378Z,26.61
2022-09-04T14:16:38.501Z,27.07
2022-09-04T14:19:17.320Z,26.80
2022-09-04T14:22:05.147Z,26.91
2022-09-04T14:24:42.057Z,27.63
2022-09-04T14:27:16.362Z,27.63
2022-09-04T14:29:54.258Z,27.23
2022-09-04T14:32:23.623Z,26.91
2022-09-04T14:34:57.123Z,26.87
2022-09-04T14:37:36.009Z,27.23
2022-09-04T14:40:17.601Z,27.11
2022-09-04T14:42:43.883Z,27.62
2022-09-04T14:45:21.141Z,27.82
2022-09-04T14:47:54.626Z,27.86
2022-09-04T14:50:30.283Z,27.69
2022-09-04T14:52:58.715Z,27.69
2022-09-04T14:55:26.690Z,26.71
2022-09-04T14:57:59.267Z,26.29
2022-09-04T15:00:26.283Z,26.14
2022-09-04T15:03:07.702Z,25.60
2022-09-04T15:05:37.164Z,24.79
2022-09-04T15:08:07.398Z,24.16
2022-09-04T15:10:54.719Z,23.77
2022-09-04T15:13:21.018Z,23.39
2022-09-04T15:15:51.456Z,23.21
2022-09-04T15:18:17.928Z,22.98
2022-09-04T15:20:58.790Z,22.87
2022-09-04T15:23:36.375Z,22.77
2022-09-04T15:26:07.748Z,22.62
2022-09-04T15:28:40.570Z,22.61
2022-09-04T15:31:06.916Z,22.58
2022-09-04T15:33:33.963Z,22.48
2022-09-04T15:36:04.499Z,22.15
2022-09-04T15:38:32.625Z,22.17
2022-09-04T15:41:28.218Z,22.19
2022-09-04T15:44:00.932Z,21.94
2022-09-04T15:46:33.047Z,21.82
2022-09-04T15:49:11.908Z,21.80
2022-09-04T15:51:47.061Z,21.67
2022-09-04T15:54:31.973Z,21.65
2022-09-04T15:57:08.371Z,21.55
2022-09-04T15:59:40.903Z,21.50
2022-09-04T16:02:25.603Z,21.43
2022-09-04T16:04:59.984Z,21.39
2022-09-04T16:07:40.238Z,21.28
2022-09-04T16:10:09.861Z,21.26
2022-09-04T16:12:48.589Z,21.21
2022-09-04T16:15:30.617Z,21.19
2022-09-04T16:17:59.954Z,21.09
2022-09-04T16:20:33.355Z,21.06
2022-09-04T16:23:03.832Z,20.98
2022-09-04T16:25:32.673Z,20.99
2022-09-04T16:27:58.978Z,20.88
2022-09-04T16:30:36.901Z,20.79
2022-09-04T16:33:04.469Z,20.78
2022-09-04T16:35:33.096Z,20.67
2022-09-04T16:38:09.273Z,20.63
2022-09-04T16:40:35.562Z,20.53
2022-09-04T16:43:01.952Z,20.43
2022-09-04T16:45:28.289Z,20.35
2022-09-04T16:48:34.943Z,20.30
2022-09-04T16:51:09.935Z,20.30
2022-09-04T16:54:05.272Z,20.20
2022-09-04T16:56:38.776Z,20.20
2022-09-04T16:59:40.900Z,20.08
2022-09-04T17:02:35.646Z,19.94
2022-09-04T17:05:10.271Z,19.83
2022-09-04T17:07:39.634Z,19.78
2022-09-04T17:10:09.566Z,19.69
2022-09-04T17:12:38.720Z,19.59
2022-09-04T17:15:20.548Z,19.54
2022-09-04T17:17:47.715Z,19.44
2022-09-04T17:20:50.320Z,19.39
2022-09-04T17:28:56.809Z,19.34
2022-09-04T17:29:08.246Z,19.24
2022-09-04T17:29:38.326Z,19.17
2022-09-04T17:32:41.117Z,19.09
2022-09-04T17:40:32.990Z,18.89
2022-09-04T17:40:35.958Z,19.01
2022-09-04T17:41:38.293Z,18.78
2022-09-04T17:44:02.776Z,18.75
2022-09-04T17:46:31.866Z,18.68
2022-09-04T17:48:59.825Z,18.60
2022-09-04T17:51:28.194Z,18.55
2022-09-04T17:53:57.053Z,18.49
2022-09-04T17:56:28.044Z,18.39
2022-09-04T17:59:06.861Z,18.33
2022-09-04T18:01:39.206Z,18.28
2022-09-04T18:04:20.605Z,18.20
2022-09-04T18:06:55.658Z,18.15
2022-09-04T18:09:42.513Z,18.04
2022-09-04T18:12:16.118Z,17.97
2022-09-04T18:14:42.419Z,17.90
2022-09-04T18:17:13.410Z,17.84
2022-09-04T18:19:52.424Z,17.77
2022-09-04T18:22:26.753Z,17.70
2022-09-04T18:25:15.920Z,17.59
2022-09-04T18:28:11.746Z,17.54
2022-09-04T18:37:13.215Z,17.46
2022-09-04T18:37:18.791Z,17.33
2022-09-04T18:37:21.794Z,17.40
2022-09-04T18:39:31.474Z,17.31
2022-09-04T18:45:53.018Z,17.28
2022-09-04T18:50:28.110Z,17.19
2022-09-04T18:50:43.762Z,17.25
2022-09-04T18:51:14.637Z,17.14
2022-09-04T18:53:27.814Z,17.04
2022-09-04T18:55:57.311Z,17.00
2022-09-04T18:58:45.138Z,16.96
2022-09-04T19:01:17.776Z,16.95
2022-09-04T19:04:18.445Z,16.91
2022-09-04T19:06:52.537Z,16.85
2022-09-04T19:09:26.658Z,16.83
2022-09-04T19:11:56.103Z,16.81
2022-09-04T19:14:25.819Z,16.76
2022-09-04T19:16:52.150Z,16.81
2022-09-04T19:19:29.219Z,16.82
2022-09-04T19:22:09.535Z,16.78
2022-09-04T19:24:38.331Z,16.78
2022-09-04T19:27:25.076Z,16.72
2022-09-04T19:30:18.880Z,16.77
2022-09-04T19:33:05.040Z,16.71
2022-09-04T19:35:36.692Z,16.68
2022-09-04T19:45:55.599Z,16.65
2022-09-04T19:46:07.117Z,16.60
2022-09-04T19:46:07.640Z,16.63
2022-09-04T19:46:46.559Z,16.65
2022-09-04T19:53:18.628Z,16.67
2022-09-04T19:53:31.987Z,16.69
2022-09-04T19:55:23.490Z,16.68
2022-09-04T19:58:08.655Z,16.66
2022-09-04T20:00:43.994Z,16.66
2022-09-04T20:03:43.312Z,16.66
2022-09-04T20:06:20.577Z,16.62
2022-09-04T20:09:02.195Z,16.63
2022-09-04T20:11:35.539Z,16.58
2022-09-04T20:14:14.353Z,16.48
2022-09-04T20:16:49.079Z,16.43
2022-09-04T20:19:28.362Z,16.34
2022-09-04T20:22:26.897Z,16.27
2022-09-04T20:25:12.229Z,16.23
2022-09-04T20:27:43.900Z,16.19
2022-09-04T20:30:12.860Z,16.16
2022-09-04T20:32:46.862Z,16.14
2022-09-04T20:35:33.174Z,16.09
2022-09-04T20:38:12.258Z,16.04
2022-09-04T20:40:43.769Z,16.01
2022-09-04T20:43:31.721Z,15.97
2022-09-04T20:48:02.307Z,15.93
2022-09-04T20:52:56.429Z,15.81
2022-09-04T20:52:59.377Z,15.87
2022-09-04T20:54:41.195Z,15.78
2022-09-04T21:00:50.205Z,15.72
2022-09-04T21:03:19.967Z,15.55
2022-09-04T21:03:22.400Z,15.62
2022-09-04T21:06:08.717Z,15.52
2022-09-04T21:09:01.780Z,15.43
2022-09-04T21:11:40.471Z,15.41
2022-09-04T21:14:10.673Z,15.41
2022-09-04T21:16:49.295Z,15.35
2022-09-04T21:19:28.093Z,15.27
2022-09-04T21:22:05.279Z,15.24
2022-09-04T21:25:02.085Z,15.16
2022-09-04T21:27:35.417Z,15.11
2022-09-04T21:30:05.557Z,15.08
2022-09-04T21:32:31.844Z,15.06
2022-09-04T21:35:10.018Z,15.07
2022-09-04T21:37:40.058Z,15.03
2022-09-04T21:40:51.745Z,14.99
2022-09-04T21:43:17.666Z,14.94
2022-09-04T21:45:46.970Z,14.92
2022-09-04T21:48:23.500Z,14.90
2022-09-04T21:51:28.962Z,14.94
2022-09-04T21:54:14.848Z,14.98
2022-09-04T22:02:25.931Z,15.02
2022-09-04T22:02:42.416Z,15.06
2022-09-04T22:03:03.167Z,15.08
2022-09-04T22:05:48.871Z,15.06
2022-09-04T22:13:28.959Z,15.12
2022-09-04T22:13:43.498Z,15.14
2022-09-04T22:14:39.368Z,15.14
2022-09-04T22:17:05.761Z,15.15
2022-09-04T22:19:41.434Z,15.14
2022-09-04T22:22:34.002Z,15.16
2022-09-04T22:25:24.414Z,15.21
2022-09-04T22:28:09.805Z,15.25
2022-09-04T22:30:39.237Z,15.29
2022-09-04T22:33:24.043Z,15.34
2022-09-04T22:36:13.270Z,15.36
2022-09-04T22:38:40.527Z,15.37
2022-09-04T22:41:09.727Z,15.42
2022-09-04T22:43:45.356Z,15.42
2022-09-04T22:46:31.797Z,15.45
2022-09-04T22:49:12.173Z,15.52
2022-09-04T22:51:45.686Z,15.50
2022-09-04T22:54:23.364Z,15.48
2022-09-04T22:56:54.827Z,15.44
2022-09-04T22:59:27.741Z,15.44
2022-09-04T23:01:57.393Z,15.45
2022-09-04T23:04:30.546Z,15.40
2022-09-04T23:10:13.849Z,15.41
2022-09-04T23:13:47.523Z,15.37
2022-09-04T23:13:58.892Z,15.31
2022-09-04T23:15:47.598Z,15.20
2022-09-04T23:19:08.695Z,15.20
2022-09-04T23:26:35.125Z,15.16
2022-09-04T23:26:46.608Z,15.11
2022-09-04T23:27:29.592Z,15.03
2022-09-04T23:30:05.683Z,15.01
2022-09-04T23:32:45.566Z,14.99
2022-09-04T23:35:22.245Z,14.91
2022-09-04T23:38:00.959Z,14.86
2022-09-04T23:40:34.600Z,14.78
2022-09-04T23:43:21.224Z,14.75
2022-09-04T23:46:10.317Z,14.69
2022-09-04T23:48:55.044Z,14.68
2022-09-04T23:51:29.637Z,14.69
2022-09-04T23:54:19.362Z,14.68
2022-09-04T23:56:57.396Z,14.73
2022-09-04T23:59:44.018Z,14.71
